EKCHESMS

Guest
Details From EKCH - Kastrup
To ESMS - Malmo Sturup
Flight Number -
Tags Generated
Created
Modified
Stats Distance 26 nm / 47 km
Max Altitude 0 ft / 0 m
Waypoints 2
Social Downloads 8
Likes 0
Share VATSIM

Download

Looking for another format? Having issues loading an existing format? Contact us
Advertisement - Login to hide

Notes

Generated

Route

EKCH ESMS

ID Type Via Altitude Latitude Longitude Leg Dist Tot Dist Heading (true) Name
O EKCH APT - 0 ft / 0 m 55.62761˚ 12.62973˚ - 0 nm - -
O ESMS APT - 0 ft / 0 m 55.52314˚ 13.35978˚ 25 nm 25 nm 104° / 105° -

Altitude Profile

Advertisement - Login to hide

EKCH

Details ICAO EKCH (CPH)
Name Kastrup
Region Denmark / Faroe Islands
Timezone Europe/Copenhagen (UTC+2.0)
Stats Elevation 17 ft / 5 m (AMSL)
Location 55.612915° 12.640961°
Runways 3
Magnetic Variation 3.789° E

METAR

EKCH 231320Z 01007KT 330V040 CAVOK 23/08 Q1024 NOSIG

Decode

TAF

TAF EKCH 231056Z 2312/2412 01006KT CAVOK TEMPO 2312/2319 19010KT= TAF EKBI 231104Z 2312/2412 09005KT CAVOK TEMPO 2409/2412 09015G25KT

Decode

Departure Runways

ID Width Length Bearing (true) Bearing (mag) Surface Threshold Offset Overrun Length
04L 148 ft / 45 m 11,848 ft / 3,611 m 41.15° 37.36° Asphalt 0 ft / 0 m 0 ft / 0 m
04R 148 ft / 45 m 10,814 ft / 3,296 m 41.15° 37.36° Asphalt 0 ft / 0 m 0 ft / 0 m
12 148 ft / 45 m 10,047 ft / 3,063 m 123.21° 119.42° Asphalt 2,313 ft / 705 m 0 ft / 0 m
22L 148 ft / 45 m 10,814 ft / 3,296 m 221.17° 217.38° Asphalt 0 ft / 0 m 0 ft / 0 m
22R 148 ft / 45 m 11,848 ft / 3,611 m 221.18° 217.39° Asphalt 2,018 ft / 615 m 0 ft / 0 m
30 148 ft / 45 m 10,047 ft / 3,063 m 303.25° 299.46° Asphalt 886 ft / 270 m 0 ft / 0 m

ESMS

Details ICAO ESMS (MMX)
Name Malmo Sturup
Region Sweden
Timezone Europe/Stockholm (UTC+2.0)
Stats Elevation 236 ft / 72 m (AMSL)
Location 55.528883° 13.371109°
Runways 2
Magnetic Variation 4.028° E

METAR

ESMS 231320Z 19012KT CAVOK 23/11 Q1024

Decode

TAF

TAF ESMS 231057Z 2312/2412 03006KT CAVOK TEMPO 2313/2316 15010KT

Decode

Destination Runways

ID Width Length Bearing (true) Bearing (mag) Surface Threshold Offset Overrun Length
11 59 ft / 18 m 2,609 ft / 795 m 105.31° 101.28° Asphalt 0 ft / 0 m 0 ft / 0 m
17 148 ft / 45 m 9,176 ft / 2,797 m 173.36° 169.33° Asphalt 0 ft / 0 m 98 ft / 30 m
29 59 ft / 18 m 2,609 ft / 795 m 285.32° 281.29° Asphalt 0 ft / 0 m 0 ft / 0 m
35 148 ft / 45 m 9,176 ft / 2,797 m 353.37° 349.34° Asphalt 0 ft / 0 m 98 ft / 30 m

Approach Navaids

Runway Type Ident Frequency Range Bearing (true) Bearing (mag) Slope Elevation
17 Localiser NMS 111.90 MHz 18 nm / 33 km 173.37° 169.34° - 236 ft / 72 m (AMSL)
17 Glidescope NMS 111.90 MHz 10 nm / 19 km 173.37° 169.34° 3.00° 236 ft / 72 m (AMSL)
35 Localiser SMS 108.10 MHz 18 nm / 33 km 353.36° 349.33° - 236 ft / 72 m (AMSL)
35 Glidescope SMS 108.10 MHz 10 nm / 19 km 353.37° 349.34° 3.00° 236 ft / 72 m (AMSL)

Popular Alternatives